Terminal Aerodrome Forecast
Issued by NWS Birmingham, AL

Home | Current Version | Previous Version | Text Only | Print | Product List | Glossary On
Versions: 1 2 3 4 5 6 7 8 9 10 11 12 13 14 15 16 17 18 19
778
FTUS44 KBMX 191125
TAFBHM
TAF
KBHM 191125Z 1912/2012 17005KT P6SM -RA OVC080
     FM191400 15005KT P6SM VCSH OVC025
     FM191800 17008KT P6SM VCSH OVC015
     FM192100 17008KT 5SM -SHRA VCTS OVC010CB=

USA.gov is the U.S. government's official web portal to all federal, state and local government web resources and services.